sensor_id;sensor_type;location;lat;lon;timestamp;pressure;altitude;pressure_sealevel;temperature;humidity
16431;BME280;8325;49.284;7.238;2022-08-21T04:04:33;98869.38;;;13.09;73.00
16431;BME280;8325;49.284;7.238;2022-08-21T04:08:45;98883.47;;;13.08;73.54
16431;BME280;8325;49.284;7.238;2022-08-21T04:12:56;98887.44;;;13.04;73.32
16431;BME280;8325;49.284;7.238;2022-08-21T04:17:08;98886.91;;;12.94;72.94
16431;BME280;8325;49.284;7.238;2022-08-21T04:21:20;98891.94;;;12.80;73.14
16431;BME280;8325;49.284;7.238;2022-08-21T04:25:34;98899.19;;;12.78;73.46
16431;BME280;8325;49.284;7.238;2022-08-21T04:29:46;98901.63;;;12.80;73.11
16431;BME280;8325;49.284;7.238;2022-08-21T04:33:58;98905.53;;;12.84;72.50
16431;BME280;8325;49.284;7.238;2022-08-21T04:38:10;98907.69;;;12.80;72.71
16431;BME280;8325;49.284;7.238;2022-08-21T04:42:22;98912.47;;;12.77;72.77
16431;BME280;8325;49.284;7.238;2022-08-21T04:46:33;98912.47;;;12.77;73.10
16431;BME280;8325;49.284;7.238;2022-08-21T04:50:54;98904.53;;;12.85;72.79
16431;BME280;8325;49.284;7.238;2022-08-21T04:55:07;98911.75;;;12.83;73.04
16431;BME280;8325;49.284;7.238;2022-08-21T04:59:23;98913.03;;;12.87;72.98
16431;BME280;8325;49.284;7.238;2022-08-21T05:03:36;98907.09;;;12.93;73.12
16431;BME280;8325;49.284;7.238;2022-08-21T05:07:48;98909.59;;;12.86;73.70
16431;BME280;8325;49.284;7.238;2022-08-21T05:12:01;98914.66;;;12.88;73.57
16431;BME280;8325;49.284;7.238;2022-08-21T05:16:13;98922.09;;;12.99;73.75
16431;BME280;8325;49.284;7.238;2022-08-21T05:20:45;98925.78;;;13.05;73.29
16431;BME280;8325;49.284;7.238;2022-08-21T05:24:57;98919.72;;;13.04;73.23
16431;BME280;8325;49.284;7.238;2022-08-21T05:29:08;98918.00;;;13.11;72.97
16431;BME280;8325;49.284;7.238;2022-08-21T05:33:23;98915.00;;;13.14;72.52
16431;BME280;8325;49.284;7.238;2022-08-21T05:37:35;98922.72;;;13.16;72.44
16431;BME280;8325;49.284;7.238;2022-08-21T05:41:47;98919.53;;;13.21;72.48
16431;BME280;8325;49.284;7.238;2022-08-21T05:45:59;98930.19;;;13.27;72.51
16431;BME280;8325;49.284;7.238;2022-08-21T05:50:11;98932.22;;;13.32;72.57
16431;BME280;8325;49.284;7.238;2022-08-21T05:54:22;98935.59;;;13.41;71.95
16431;BME280;8325;49.284;7.238;2022-08-21T05:58:34;98930.78;;;13.44;71.73
16431;BME280;8325;49.284;7.238;2022-08-21T06:02:46;98938.19;;;13.55;71.44
16431;BME280;8325;49.284;7.238;2022-08-21T06:06:57;98940.69;;;13.64;71.41
16431;BME280;8325;49.284;7.238;2022-08-21T06:11:09;98929.72;;;13.75;71.21
16431;BME280;8325;49.284;7.238;2022-08-21T06:15:21;98935.38;;;13.93;70.55
16431;BME280;8325;49.284;7.238;2022-08-21T06:19:33;98933.19;;;13.97;70.71
16431;BME280;8325;49.284;7.238;2022-08-21T06:23:45;98927.88;;;15.52;66.10
16431;BME280;8325;49.284;7.238;2022-08-21T06:28:01;98912.56;;;20.39;51.71
16431;BME280;8325;49.284;7.238;2022-08-21T06:32:13;98900.56;;;24.58;41.06
16431;BME280;8325;49.284;7.238;2022-08-21T06:36:26;98887.06;;;28.21;34.34
16431;BME280;8325;49.284;7.238;2022-08-21T06:40:38;98878.03;;;29.99;31.51
16431;BME280;8325;49.284;7.238;2022-08-21T06:44:57;98883.31;;;30.70;29.97
16431;BME280;8325;49.284;7.238;2022-08-21T06:49:08;98884.25;;;30.46;30.25
16431;BME280;8325;49.284;7.238;2022-08-21T06:53:32;98884.44;;;29.66;31.62
16431;BME280;8325;49.284;7.238;2022-08-21T06:57:44;98891.50;;;28.65;32.71
16431;BME280;8325;49.284;7.238;2022-08-21T07:02:03;98891.53;;;26.26;36.85
16431;BME280;8325;49.284;7.238;2022-08-21T07:06:15;98904.59;;;25.09;39.56
16431;BME280;8325;49.284;7.238;2022-08-21T07:10:27;98896.44;;;24.13;41.92
16431;BME280;8325;49.284;7.238;2022-08-21T07:14:38;98896.00;;;23.24;43.37
16431;BME280;8325;49.284;7.238;2022-08-21T07:18:50;98892.16;;;23.36;44.43
16431;BME280;8325;49.284;7.238;2022-08-21T07:23:05;98895.28;;;23.28;44.57
16431;BME280;8325;49.284;7.238;2022-08-21T07:27:17;98900.69;;;23.60;44.07
16431;BME280;8325;49.284;7.238;2022-08-21T07:31:29;98900.41;;;23.35;45.18
16431;BME280;8325;49.284;7.238;2022-08-21T07:35:40;98892.31;;;23.25;45.22
16431;BME280;8325;49.284;7.238;2022-08-21T07:39:52;98888.50;;;23.20;46.14
16431;BME280;8325;49.284;7.238;2022-08-21T07:44:04;98885.66;;;23.49;45.90
16431;BME280;8325;49.284;7.238;2022-08-21T07:48:17;98886.13;;;23.95;45.54
16431;BME280;8325;49.284;7.238;2022-08-21T07:52:28;98886.03;;;24.12;45.33
16431;BME280;8325;49.284;7.238;2022-08-21T07:56:42;98883.66;;;24.16;45.06
16431;BME280;8325;49.284;7.238;2022-08-21T08:00:53;98872.41;;;24.13;45.04
16431;BME280;8325;49.284;7.238;2022-08-21T08:05:08;98872.81;;;24.27;44.99
16431;BME280;8325;49.284;7.238;2022-08-21T08:09:20;98866.16;;;24.30;44.94
16431;BME280;8325;49.284;7.238;2022-08-21T08:13:38;98855.88;;;24.11;45.84
16431;BME280;8325;49.284;7.238;2022-08-21T08:17:50;98859.28;;;23.75;45.94
16431;BME280;8325;49.284;7.238;2022-08-21T08:22:12;98853.53;;;23.88;46.59
16431;BME280;8325;49.284;7.238;2022-08-21T08:26:24;98846.34;;;24.21;46.18
16431;BME280;8325;49.284;7.238;2022-08-21T08:30:35;98849.63;;;24.33;46.49
16431;BME280;8325;49.284;7.238;2022-08-21T08:34:50;98861.34;;;24.27;45.60
16431;BME280;8325;49.284;7.238;2022-08-21T08:39:04;98844.72;;;24.20;44.82
16431;BME280;8325;49.284;7.238;2022-08-21T08:43:19;98843.16;;;23.92;44.77
16431;BME280;8325;49.284;7.238;2022-08-21T08:47:32;98855.31;;;23.77;45.35
16431;BME280;8325;49.284;7.238;2022-08-21T08:51:46;98848.31;;;23.71;44.55
16431;BME280;8325;49.284;7.238;2022-08-21T08:56:04;98858.03;;;23.60;43.71
16431;BME280;8325;49.284;7.238;2022-08-21T09:00:19;98856.06;;;23.73;43.30
16431;BME280;8325;49.284;7.238;2022-08-21T09:04:32;98861.72;;;23.54;41.78
16431;BME280;8325;49.284;7.238;2022-08-21T09:08:49;98861.31;;;23.18;42.30
16431;BME280;8325;49.284;7.238;2022-08-21T09:13:30;98861.31;;;23.18;42.46
16431;BME280;8325;49.284;7.238;2022-08-21T09:26:53;98841.78;;;23.84;42.33
16431;BME280;8325;49.284;7.238;2022-08-21T09:31:08;98839.34;;;24.15;42.73
16431;BME280;8325;49.284;7.238;2022-08-21T09:35:23;98827.78;;;24.41;41.46
16431;BME280;8325;49.284;7.238;2022-08-21T09:39:39;98828.19;;;24.55;40.59
16431;BME280;8325;49.284;7.238;2022-08-21T09:43:57;98823.44;;;24.67;40.36
16431;BME280;8325;49.284;7.238;2022-08-21T09:48:20;98811.00;;;24.88;40.26
16431;BME280;8325;49.284;7.238;2022-08-21T09:52:43;98815.31;;;25.04;38.78
16431;BME280;8325;49.284;7.238;2022-08-21T09:56:59;98812.66;;;25.04;38.17
16431;BME280;8325;49.284;7.238;2022-08-21T10:01:29;98817.16;;;24.99;38.13
16431;BME280;8325;49.284;7.238;2022-08-21T10:05:58;98808.91;;;25.00;37.69
16431;BME280;8325;49.284;7.238;2022-08-21T10:10:17;98803.03;;;25.09;37.56
16431;BME280;8325;49.284;7.238;2022-08-21T10:37:15;98780.22;;;25.89;36.02
16431;BME280;8325;49.284;7.238;2022-08-21T10:42:03;98775.41;;;25.97;35.94
16431;BME280;8325;49.284;7.238;2022-08-21T10:46:34;98776.72;;;26.04;35.18
16431;BME280;8325;49.284;7.238;2022-08-21T10:51:28;98768.97;;;26.03;34.83
16431;BME280;8325;49.284;7.238;2022-08-21T10:56:13;98774.88;;;26.05;33.51
16431;BME280;8325;49.284;7.238;2022-08-21T11:00:30;98765.25;;;25.83;34.39
16431;BME280;8325;49.284;7.238;2022-08-21T11:04:55;98756.91;;;25.54;33.76
16431;BME280;8325;49.284;7.238;2022-08-21T11:09:17;98751.84;;;25.68;34.22
16431;BME280;8325;49.284;7.238;2022-08-21T11:13:43;98747.56;;;26.03;34.61
16431;BME280;8325;49.284;7.238;2022-08-21T11:18:04;98744.84;;;26.18;34.36
16431;BME280;8325;49.284;7.238;2022-08-21T11:22:31;98735.19;;;26.27;33.31
16431;BME280;8325;49.284;7.238;2022-08-21T11:26:51;98737.56;;;26.54;33.16
16431;BME280;8325;49.284;7.238;2022-08-21T11:35:49;98725.81;;;26.30;31.60
16431;BME280;8325;49.284;7.238;2022-08-21T11:40:09;98730.25;;;26.70;30.91
16431;BME280;8325;49.284;7.238;2022-08-21T11:45:43;98729.56;;;26.94;29.01
16431;BME280;8325;49.284;7.238;2022-08-21T11:49:40;98715.34;;;26.49;29.37
16431;BME280;8325;49.284;7.238;2022-08-21T11:58:45;98719.03;;;26.48;28.01
16431;BME280;8325;49.284;7.238;2022-08-21T12:03:08;98716.31;;;26.73;28.36
16431;BME280;8325;49.284;7.238;2022-08-21T12:07:48;98709.66;;;27.10;27.43
16431;BME280;8325;49.284;7.238;2022-08-21T12:12:25;98702.75;;;27.43;27.10
16431;BME280;8325;49.284;7.238;2022-08-21T12:16:39;98705.03;;;27.60;27.59
16431;BME280;8325;49.284;7.238;2022-08-21T12:26:00;98710.84;;;27.67;25.83
16431;BME280;8325;49.284;7.238;2022-08-21T12:35:10;98696.28;;;27.05;28.02
16431;BME280;8325;49.284;7.238;2022-08-21T12:39:37;98691.59;;;27.31;29.33
16431;BME280;8325;49.284;7.238;2022-08-21T12:43:59;98701.94;;;27.43;28.85
16431;BME280;8325;49.284;7.238;2022-08-21T12:48:42;98689.38;;;27.67;29.79
16431;BME280;8325;49.284;7.238;2022-08-21T12:53:05;98687.69;;;27.76;29.10
16431;BME280;8325;49.284;7.238;2022-08-21T12:57:31;98685.22;;;27.85;29.01
16431;BME280;8325;49.284;7.238;2022-08-21T13:01:51;98682.91;;;28.03;28.72
16431;BME280;8325;49.284;7.238;2022-08-21T13:06:04;98679.97;;;28.23;29.31
16431;BME280;8325;49.284;7.238;2022-08-21T13:10:21;98678.78;;;28.10;28.14
16431;BME280;8325;49.284;7.238;2022-08-21T13:14:39;98671.31;;;28.07;29.38
16431;BME280;8325;49.284;7.238;2022-08-21T13:19:03;98664.97;;;28.22;28.01
16431;BME280;8325;49.284;7.238;2022-08-21T13:23:27;98660.72;;;28.40;28.05
16431;BME280;8325;49.284;7.238;2022-08-21T13:27:39;98650.53;;;28.42;27.53
16431;BME280;8325;49.284;7.238;2022-08-21T13:31:57;98644.59;;;28.45;27.18
16431;BME280;8325;49.284;7.238;2022-08-21T13:36:24;98636.31;;;28.60;27.23
16431;BME280;8325;49.284;7.238;2022-08-21T13:40:51;98633.09;;;28.58;27.10
16431;BME280;8325;49.284;7.238;2022-08-21T13:45:12;98626.56;;;28.64;26.91
16431;BME280;8325;49.284;7.238;2022-08-21T13:49:32;98627.22;;;28.75;26.90
16431;BME280;8325;49.284;7.238;2022-08-21T13:53:47;98623.72;;;28.75;26.95
16431;BME280;8325;49.284;7.238;2022-08-21T13:58:04;98626.22;;;28.71;26.40
16431;BME280;8325;49.284;7.238;2022-08-21T14:02:22;98619.09;;;28.80;26.64
16431;BME280;8325;49.284;7.238;2022-08-21T14:06:38;98619.94;;;28.57;26.00
16431;BME280;8325;49.284;7.238;2022-08-21T14:10:51;98611.63;;;28.58;26.54
16431;BME280;8325;49.284;7.238;2022-08-21T14:15:09;98627.09;;;28.85;26.85
16431;BME280;8325;49.284;7.238;2022-08-21T14:19:34;98614.72;;;29.03;26.40
16431;BME280;8325;49.284;7.238;2022-08-21T14:23:59;98622.63;;;29.13;25.31
16431;BME280;8325;49.284;7.238;2022-08-21T14:28:33;98618.72;;;29.06;25.12
16431;BME280;8325;49.284;7.238;2022-08-21T14:32:46;98609.47;;;29.12;25.91
16431;BME280;8325;49.284;7.238;2022-08-21T14:36:58;98611.66;;;28.91;26.48
16431;BME280;8325;49.284;7.238;2022-08-21T14:41:21;98617.16;;;29.00;26.01
16431;BME280;8325;49.284;7.238;2022-08-21T14:45:35;98612.91;;;28.80;26.10
16431;BME280;8325;49.284;7.238;2022-08-21T14:49:50;98605.44;;;28.77;25.49
16431;BME280;8325;49.284;7.238;2022-08-21T14:54:06;98604.19;;;28.69;25.60
16431;BME280;8325;49.284;7.238;2022-08-21T14:58:18;98602.44;;;28.59;25.48
16431;BME280;8325;49.284;7.238;2022-08-21T15:02:30;98599.28;;;28.57;25.46
16431;BME280;8325;49.284;7.238;2022-08-21T15:06:42;98607.75;;;28.45;25.64
16431;BME280;8325;49.284;7.238;2022-08-21T15:10:53;98605.47;;;28.34;25.92
16431;BME280;8325;49.284;7.238;2022-08-21T15:15:22;98600.56;;;28.17;25.75
16431;BME280;8325;49.284;7.238;2022-08-21T15:19:33;98588.97;;;28.21;25.67
16431;BME280;8325;49.284;7.238;2022-08-21T15:23:45;98586.72;;;28.29;25.97
16431;BME280;8325;49.284;7.238;2022-08-21T15:27:58;98587.59;;;28.05;26.49
16431;BME280;8325;49.284;7.238;2022-08-21T15:36:27;98587.00;;;28.08;26.78
16431;BME280;8325;49.284;7.238;2022-08-21T15:40:41;98589.38;;;28.10;27.02
16431;BME280;8325;49.284;7.238;2022-08-21T15:45:04;98588.94;;;28.03;27.15
16431;BME280;8325;49.284;7.238;2022-08-21T15:49:16;98574.44;;;27.80;27.44
16431;BME280;8325;49.284;7.238;2022-08-21T15:53:27;98579.03;;;27.79;27.42
16431;BME280;8325;49.284;7.238;2022-08-21T15:57:45;98563.25;;;27.72;27.84
16431;BME280;8325;49.284;7.238;2022-08-21T16:02:13;98568.66;;;27.67;27.41
16431;BME280;8325;49.284;7.238;2022-08-21T16:06:26;98573.38;;;27.51;26.96
16431;BME280;8325;49.284;7.238;2022-08-21T16:10:59;98567.38;;;27.36;27.65
16431;BME280;8325;49.284;7.238;2022-08-21T16:15:12;98569.44;;;27.15;28.09
16431;BME280;8325;49.284;7.238;2022-08-21T16:19:31;98574.44;;;26.92;29.06
16431;BME280;8325;49.284;7.238;2022-08-21T16:23:43;98572.56;;;26.88;28.76
16431;BME280;8325;49.284;7.238;2022-08-21T16:27:57;98566.78;;;26.75;29.12
16431;BME280;8325;49.284;7.238;2022-08-21T16:32:11;98566.84;;;26.70;29.23
16431;BME280;8325;49.284;7.238;2022-08-21T16:36:24;98565.28;;;26.59;29.20
16431;BME280;8325;49.284;7.238;2022-08-21T16:40:40;98562.69;;;26.49;29.74
16431;BME280;8325;49.284;7.238;2022-08-21T16:44:53;98564.50;;;26.58;29.42
16431;BME280;8325;49.284;7.238;2022-08-21T16:49:04;98561.78;;;26.63;29.02
16431;BME280;8325;49.284;7.238;2022-08-21T16:53:16;98555.97;;;26.51;29.35
16431;BME280;8325;49.284;7.238;2022-08-21T16:57:28;98556.28;;;26.39;29.37
16431;BME280;8325;49.284;7.238;2022-08-21T17:01:41;98549.63;;;26.32;29.54
16431;BME280;8325;49.284;7.238;2022-08-21T17:05:53;98552.91;;;26.24;29.46
16431;BME280;8325;49.284;7.238;2022-08-21T17:10:06;98547.84;;;26.17;30.01
16431;BME280;8325;49.284;7.238;2022-08-21T17:14:21;98547.63;;;26.08;29.97
16431;BME280;8325;49.284;7.238;2022-08-21T17:18:33;98548.44;;;26.04;30.42
16431;BME280;8325;49.284;7.238;2022-08-21T17:22:45;98554.88;;;25.98;30.82
16431;BME280;8325;49.284;7.238;2022-08-21T17:26:57;98559.69;;;26.06;30.75
16431;BME280;8325;49.284;7.238;2022-08-21T17:31:10;98555.66;;;26.08;31.23
16431;BME280;8325;49.284;7.238;2022-08-21T17:35:22;98552.75;;;26.00;31.56
16431;BME280;8325;49.284;7.238;2022-08-21T17:39:34;98561.38;;;25.86;31.80
16431;BME280;8325;49.284;7.238;2022-08-21T17:43:47;98553.63;;;25.75;31.92
16431;BME280;8325;49.284;7.238;2022-08-21T17:47:59;98546.97;;;25.62;32.34
16431;BME280;8325;49.284;7.238;2022-08-21T17:52:11;98553.97;;;25.53;32.48
16431;BME280;8325;49.284;7.238;2022-08-21T17:56:26;98557.72;;;25.41;33.04
16431;BME280;8325;49.284;7.238;2022-08-21T18:00:40;98554.25;;;25.31;33.64
16431;BME280;8325;49.284;7.238;2022-08-21T18:04:52;98557.47;;;25.22;34.74
16431;BME280;8325;49.284;7.238;2022-08-21T18:09:06;98563.63;;;25.13;35.20
16431;BME280;8325;49.284;7.238;2022-08-21T18:13:23;98577.50;;;24.99;36.79
16431;BME280;8325;49.284;7.238;2022-08-21T18:17:36;98570.00;;;24.86;36.93
16431;BME280;8325;49.284;7.238;2022-08-21T18:21:48;98568.13;;;24.71;37.65
16431;BME280;8325;49.284;7.238;2022-08-21T18:26:00;98567.59;;;24.54;39.33
16431;BME280;8325;49.284;7.238;2022-08-21T18:30:14;98559.75;;;24.32;40.15
16431;BME280;8325;49.284;7.238;2022-08-21T18:34:30;98572.50;;;24.09;40.46
16431;BME280;8325;49.284;7.238;2022-08-21T18:38:44;98578.56;;;23.89;40.05
16431;BME280;8325;49.284;7.238;2022-08-21T18:42:56;98580.63;;;23.77;41.43
16431;BME280;8325;49.284;7.238;2022-08-21T18:47:31;98586.31;;;23.54;43.56
16431;BME280;8325;49.284;7.238;2022-08-21T18:51:47;98579.81;;;23.39;43.85
16431;BME280;8325;49.284;7.238;2022-08-21T18:56:00;98587.19;;;23.22;44.20
16431;BME280;8325;49.284;7.238;2022-08-21T19:00:22;98589.44;;;23.03;45.01
16431;BME280;8325;49.284;7.238;2022-08-21T19:04:35;98595.69;;;22.92;44.63
16431;BME280;8325;49.284;7.238;2022-08-21T19:08:55;98593.44;;;22.79;44.75
16431;BME280;8325;49.284;7.238;2022-08-21T19:13:09;98602.31;;;22.62;46.23
16431;BME280;8325;49.284;7.238;2022-08-21T19:17:22;98594.69;;;22.44;46.51
16431;BME280;8325;49.284;7.238;2022-08-21T19:21:35;98599.09;;;22.33;46.21
16431;BME280;8325;49.284;7.238;2022-08-21T19:25:49;98593.97;;;22.26;46.39
16431;BME280;8325;49.284;7.238;2022-08-21T19:30:10;98602.03;;;22.15;47.32
16431;BME280;8325;49.284;7.238;2022-08-21T19:34:26;98600.00;;;22.00;47.68
16431;BME280;8325;49.284;7.238;2022-08-21T19:38:39;98601.47;;;21.91;48.01
16431;BME280;8325;49.284;7.238;2022-08-21T19:42:51;98611.69;;;21.77;47.82
16431;BME280;8325;49.284;7.238;2022-08-21T19:47:08;98605.66;;;21.65;48.41
16431;BME280;8325;49.284;7.238;2022-08-21T19:51:21;98598.47;;;21.65;47.41
16431;BME280;8325;49.284;7.238;2022-08-21T19:55:33;98613.28;;;21.61;47.15
16431;BME280;8325;49.284;7.238;2022-08-21T19:59:45;98603.00;;;21.48;48.33
16431;BME280;8325;49.284;7.238;2022-08-21T20:03:56;98610.84;;;21.37;48.42
16431;BME280;8325;49.284;7.238;2022-08-21T20:08:09;98605.88;;;21.29;48.39
16431;BME280;8325;49.284;7.238;2022-08-21T20:12:31;98614.25;;;21.21;48.85
16431;BME280;8325;49.284;7.238;2022-08-21T20:16:43;98606.47;;;21.31;49.08
16431;BME280;8325;49.284;7.238;2022-08-21T20:20:54;98610.06;;;21.25;48.94
16431;BME280;8325;49.284;7.238;2022-08-21T20:25:07;98609.84;;;21.10;47.91
16431;BME280;8325;49.284;7.238;2022-08-21T20:29:20;98616.00;;;20.99;48.78
16431;BME280;8325;49.284;7.238;2022-08-21T20:33:47;98604.75;;;20.91;49.57
16431;BME280;8325;49.284;7.238;2022-08-21T20:38:00;98604.41;;;20.88;49.62
16431;BME280;8325;49.284;7.238;2022-08-21T20:42:11;98601.66;;;20.83;49.26
16431;BME280;8325;49.284;7.238;2022-08-21T20:46:25;98606.56;;;20.74;50.36
16431;BME280;8325;49.284;7.238;2022-08-21T20:50:47;98601.72;;;20.71;50.78
16431;BME280;8325;49.284;7.238;2022-08-21T20:55:08;98610.09;;;20.63;51.07
16431;BME280;8325;49.284;7.238;2022-08-21T21:04:01;98617.84;;;20.53;51.38
16431;BME280;8325;49.284;7.238;2022-08-21T21:08:36;98608.94;;;20.47;52.08
16431;BME280;8325;49.284;7.238;2022-08-21T21:12:52;98608.19;;;20.35;51.46
16431;BME280;8325;49.284;7.238;2022-08-21T21:17:15;98605.53;;;20.35;52.42
16431;BME280;8325;49.284;7.238;2022-08-21T21:21:41;98601.28;;;20.22;52.78
16431;BME280;8325;49.284;7.238;2022-08-21T21:26:09;98607.97;;;20.24;52.83
